createdAt,value
2023-01-10T09:35:31.689Z,6.10
2023-01-10T09:37:04.968Z,4.87
2023-01-10T09:38:38.476Z,8.87
2023-01-10T09:40:16.557Z,9.53
2023-01-10T09:42:01.927Z,8.57
2023-01-10T09:43:46.895Z,4.87
2023-01-10T09:45:25.829Z,4.30
2023-01-10T09:47:08.483Z,4.10
2023-01-10T09:48:54.881Z,5.03
2023-01-10T09:50:39.134Z,4.17
2023-01-10T09:52:22.589Z,3.33
2023-01-10T09:54:10.713Z,3.23
2023-01-10T09:55:56.081Z,4.23
2023-01-10T09:57:29.252Z,5.07
2023-01-10T09:59:04.867Z,8.07
2023-01-10T10:00:43.079Z,5.33
2023-01-10T10:02:24.835Z,4.23
2023-01-10T10:04:08.511Z,5.73
2023-01-10T10:05:43.605Z,7.50
2023-01-10T10:07:17.798Z,8.03
2023-01-10T10:08:52.949Z,7.63
2023-01-10T10:10:28.692Z,8.73
2023-01-10T10:12:20.736Z,5.77
2023-01-10T10:14:01.571Z,6.20
2023-01-10T10:15:42.411Z,6.30
2023-01-10T10:17:33.299Z,7.03
2023-01-10T10:19:16.043Z,6.83
2023-01-10T10:21:05.566Z,9.37
2023-01-10T10:22:45.830Z,8.27
2023-01-10T10:24:35.536Z,8.93
2023-01-10T10:26:17.657Z,5.43
2023-01-10T10:28:02.773Z,8.87
2023-01-10T10:29:56.129Z,7.40
2023-01-10T10:31:54.928Z,5.40
2023-01-10T10:33:44.187Z,7.87
2023-01-10T10:35:24.190Z,5.23
2023-01-10T10:37:04.165Z,6.33
2023-01-10T10:38:40.009Z,6.60
2023-01-10T10:40:20.123Z,7.37
2023-01-10T10:41:54.681Z,5.50
2023-01-10T10:43:33.116Z,6.47
2023-01-10T10:45:16.288Z,7.50
2023-01-10T10:46:49.476Z,5.27
2023-01-10T10:48:26.841Z,5.40
2023-01-10T10:50:19.050Z,6.73
2023-01-10T10:51:53.944Z,4.90
2023-01-10T10:53:28.673Z,4.50
2023-01-10T10:55:02.742Z,4.03
2023-01-10T10:56:36.989Z,6.67
2023-01-10T10:58:14.715Z,5.70
2023-01-10T10:59:49.593Z,4.90
2023-01-10T11:01:26.554Z,5.37
2023-01-10T11:03:04.811Z,6.37
2023-01-10T11:04:38.824Z,5.17
2023-01-10T11:06:12.104Z,5.23
2023-01-10T11:07:45.634Z,3.70
2023-01-10T11:09:23.831Z,6.87
2023-01-10T11:10:58.348Z,5.70
2023-01-10T11:12:36.279Z,5.57
2023-01-10T11:14:10.574Z,6.13
2023-01-10T11:15:46.525Z,9.90
2023-01-10T11:17:22.704Z,6.57
2023-01-10T11:19:26.630Z,5.90
2023-01-10T11:21:02.267Z,7.37
2023-01-10T11:22:41.761Z,5.87
2023-01-10T11:24:25.264Z,5.43
2023-01-10T11:25:59.042Z,6.80
2023-01-10T11:27:34.455Z,5.87
2023-01-10T11:29:10.139Z,6.03
2023-01-10T11:30:49.402Z,8.33
2023-01-10T11:32:28.275Z,9.67
2023-01-10T11:34:06.894Z,4.10
2023-01-10T11:35:41.919Z,8.07
2023-01-10T11:37:22.503Z,9.53
2023-01-10T11:39:02.574Z,6.87
2023-01-10T11:40:38.985Z,6.83
2023-01-10T11:42:29.732Z,6.97
2023-01-10T11:44:18.069Z,9.40
2023-01-10T11:45:56.136Z,4.23
2023-01-10T11:47:29.987Z,6.70
2023-01-10T11:49:14.621Z,9.63
2023-01-10T11:50:51.929Z,6.60
2023-01-10T11:52:28.295Z,8.53
2023-01-10T11:54:03.049Z,9.00
2023-01-10T11:55:39.582Z,8.37
2023-01-10T11:57:17.760Z,5.40
2023-01-10T11:58:50.934Z,10.50
2023-01-10T12:00:31.326Z,6.63
2023-01-10T12:02:11.461Z,8.00
2023-01-10T12:03:47.466Z,7.33
2023-01-10T12:05:22.504Z,5.03
2023-01-10T12:06:59.973Z,5.70
2023-01-10T12:08:34.596Z,8.90
2023-01-10T12:10:21.159Z,7.33
2023-01-10T12:12:03.629Z,8.03
2023-01-10T12:13:48.588Z,7.20
2023-01-10T12:15:27.865Z,6.70
2023-01-10T12:17:02.105Z,7.03
2023-01-10T12:18:35.286Z,7.70
2023-01-10T12:20:15.488Z,6.87
2023-01-10T12:21:49.268Z,9.13
2023-01-10T12:23:26.267Z,5.40
2023-01-10T12:25:01.029Z,8.70
2023-01-10T12:26:35.719Z,8.70
2023-01-10T12:28:17.715Z,7.00
2023-01-10T12:30:04.748Z,8.07
2023-01-10T12:31:41.404Z,8.50
2023-01-10T12:33:19.923Z,9.93
2023-01-10T12:35:00.181Z,6.93
2023-01-10T12:36:42.459Z,8.17
2023-01-10T12:38:25.848Z,11.53
2023-01-10T12:40:06.098Z,5.83
2023-01-10T12:42:04.242Z,6.87
2023-01-10T12:44:00.724Z,9.00
2023-01-10T12:45:40.519Z,6.87
2023-01-10T12:47:22.098Z,6.70
2023-01-10T12:49:03.384Z,9.87
2023-01-10T12:50:40.419Z,6.03
2023-01-10T12:52:18.138Z,9.20
2023-01-10T12:53:57.511Z,10.00
2023-01-10T12:55:35.348Z,9.20
2023-01-10T12:57:25.550Z,7.67
2023-01-10T12:59:05.075Z,7.87
2023-01-10T13:00:48.240Z,11.57
2023-01-10T13:02:26.319Z,9.83
2023-01-10T13:04:03.697Z,6.97
2023-01-10T13:05:36.809Z,5.83
2023-01-10T13:07:13.692Z,6.50
2023-01-10T13:08:46.859Z,10.87
2023-01-10T13:10:23.177Z,5.03
2023-01-10T13:12:02.768Z,7.37
2023-01-10T13:13:38.078Z,4.63
2023-01-10T13:15:19.822Z,6.67
2023-01-10T13:16:59.693Z,6.03
2023-01-10T13:18:34.812Z,4.63
2023-01-10T13:20:30.855Z,7.00
2023-01-10T13:22:23.815Z,8.43
2023-01-10T13:24:01.756Z,6.93
2023-01-10T13:25:37.975Z,5.33
2023-01-10T13:27:21.338Z,6.80
2023-01-10T13:28:57.070Z,6.57
2023-01-10T13:30:34.178Z,4.40
2023-01-10T13:32:21.339Z,7.00
2023-01-10T13:33:57.080Z,8.53
2023-01-10T13:35:39.687Z,9.83
2023-01-10T13:37:15.191Z,7.17
2023-01-10T13:38:52.373Z,7.43
2023-01-10T13:40:30.467Z,4.90
2023-01-10T13:42:43.742Z,8.70
2023-01-10T13:44:17.088Z,8.13
2023-01-10T13:46:29.499Z,12.57
2023-01-10T13:48:05.182Z,8.13
2023-01-10T13:49:45.061Z,6.07
2023-01-10T13:51:19.313Z,6.00
2023-01-10T13:53:16.501Z,3.53
2023-01-10T13:54:57.887Z,5.93
2023-01-10T13:56:37.002Z,6.47
2023-01-10T13:58:59.253Z,6.23
2023-01-10T14:01:06.210Z,7.20
2023-01-10T14:02:46.579Z,5.07
2023-01-10T14:04:22.641Z,7.00
2023-01-10T14:05:55.872Z,4.27
2023-01-10T14:07:31.802Z,7.97
2023-01-10T14:09:08.390Z,5.40
2023-01-10T14:10:42.035Z,9.73
2023-01-10T14:12:25.961Z,4.87
2023-01-10T14:14:02.149Z,6.87
2023-01-10T14:15:40.023Z,7.07
2023-01-10T14:17:16.099Z,7.73
2023-01-10T14:18:50.662Z,8.10
2023-01-10T14:20:24.761Z,4.33
2023-01-10T14:22:00.465Z,6.00
2023-01-10T14:23:37.061Z,6.37
2023-01-10T14:25:19.369Z,5.03
2023-01-10T14:26:57.202Z,7.00
2023-01-10T14:28:32.624Z,8.43
2023-01-10T14:30:08.357Z,5.30
2023-01-10T14:31:47.123Z,3.80
2023-01-10T14:33:22.786Z,3.60
2023-01-10T14:34:57.552Z,5.07
2023-01-10T14:36:34.136Z,4.47
2023-01-10T14:38:09.648Z,6.90
2023-01-10T14:39:44.491Z,7.23
2023-01-10T14:41:23.043Z,6.60
2023-01-10T14:43:00.087Z,6.30
2023-01-10T14:44:43.160Z,4.77
2023-01-10T14:46:21.190Z,4.63
2023-01-10T14:47:54.468Z,6.43
2023-01-10T14:49:28.659Z,6.33
2023-01-10T14:51:20.999Z,6.07
2023-01-10T14:52:54.481Z,7.90
2023-01-10T14:54:29.336Z,3.93
2023-01-10T14:56:02.527Z,3.70
2023-01-10T14:57:35.614Z,9.50
2023-01-10T14:59:19.067Z,4.77
2023-01-10T15:00:54.773Z,6.90
2023-01-10T15:02:27.975Z,6.80
2023-01-10T15:04:02.845Z,6.47
2023-01-10T15:05:46.024Z,5.40
2023-01-10T15:07:22.891Z,6.73
2023-01-10T15:09:00.837Z,5.07
2023-01-10T15:10:40.257Z,6.63
2023-01-10T15:12:14.994Z,6.00
2023-01-10T15:13:53.317Z,5.27
2023-01-10T15:15:33.376Z,7.80
2023-01-10T15:17:09.386Z,4.30
2023-01-10T15:18:45.460Z,9.23
2023-01-10T15:20:20.309Z,7.70
2023-01-10T15:21:53.855Z,6.30
2023-01-10T15:23:35.436Z,5.10
2023-01-10T15:25:28.496Z,8.07
2023-01-10T15:27:04.301Z,4.53
2023-01-10T15:28:37.657Z,9.67
2023-01-10T15:30:11.930Z,6.97
2023-01-10T15:31:45.141Z,8.70
2023-01-10T15:33:22.822Z,6.93
2023-01-10T15:34:58.342Z,8.83
2023-01-10T15:36:31.507Z,4.93
2023-01-10T15:38:08.441Z,8.43
2023-01-10T15:39:42.951Z,6.20
2023-01-10T15:41:19.849Z,4.33
2023-01-10T15:42:53.499Z,8.07
2023-01-10T15:44:39.393Z,7.40
2023-01-10T15:46:19.823Z,5.47
2023-01-10T15:48:00.141Z,6.57
2023-01-10T15:49:33.203Z,5.90
2023-01-10T15:51:14.989Z,3.63
2023-01-10T15:52:53.325Z,5.00
2023-01-10T15:54:33.609Z,6.17
2023-01-10T15:56:14.449Z,2.97
2023-01-10T15:57:52.133Z,5.67
2023-01-10T15:59:28.968Z,4.83
2023-01-10T16:01:03.293Z,4.27
2023-01-10T16:02:37.712Z,6.70
2023-01-10T16:04:15.532Z,4.27
2023-01-10T16:05:54.660Z,5.33
2023-01-10T16:07:31.582Z,4.07
2023-01-10T16:09:08.316Z,3.17
2023-01-10T16:10:41.637Z,4.53
2023-01-10T16:12:45.169Z,4.23
2023-01-10T16:14:18.251Z,5.10
2023-01-10T16:15:51.710Z,6.10
2023-01-10T16:17:24.796Z,5.30
2023-01-10T16:18:57.933Z,7.90
2023-01-10T16:20:33.452Z,8.70
2023-01-10T16:22:06.677Z,5.80
2023-01-10T16:23:45.999Z,6.43
2023-01-10T16:25:21.449Z,5.30
2023-01-10T16:26:55.487Z,7.57
2023-01-10T16:28:35.814Z,6.27
2023-01-10T16:30:22.296Z,10.57
2023-01-10T16:31:55.475Z,5.37
2023-01-10T16:33:29.488Z,7.83
2023-01-10T16:35:02.738Z,8.07
2023-01-10T16:36:36.355Z,6.13
2023-01-10T16:38:10.839Z,6.67
2023-01-10T16:39:43.892Z,3.97
2023-01-10T16:41:34.520Z,5.70
2023-01-10T16:43:19.770Z,5.23
2023-01-10T16:44:54.254Z,7.03
2023-01-10T16:46:27.700Z,5.57
2023-01-10T16:48:01.273Z,8.13
2023-01-10T16:49:34.462Z,8.80
2023-01-10T16:51:16.995Z,6.27
2023-01-10T16:52:50.037Z,7.73
2023-01-10T16:54:25.906Z,6.73
2023-01-10T16:55:59.008Z,7.57
2023-01-10T16:57:32.115Z,5.83
2023-01-10T16:59:06.490Z,5.83
2023-01-10T17:00:42.401Z,6.57
2023-01-10T17:02:19.580Z,7.37
2023-01-10T17:03:54.094Z,8.90
2023-01-10T17:05:27.429Z,8.00
2023-01-10T17:07:00.547Z,4.93
2023-01-10T17:08:33.771Z,5.40
2023-01-10T17:10:07.538Z,6.93
2023-01-10T17:11:43.328Z,6.27
2023-01-10T17:13:21.733Z,8.53
2023-01-10T17:14:54.776Z,9.27
2023-01-10T17:16:29.369Z,6.47
2023-01-10T17:18:02.490Z,8.20
2023-01-10T17:19:37.109Z,10.77
2023-01-10T17:21:15.935Z,7.77
2023-01-10T17:22:48.999Z,6.03
2023-01-10T17:24:22.147Z,8.33
2023-01-10T17:25:59.938Z,9.40
2023-01-10T17:27:33.002Z,7.37
2023-01-10T17:29:06.170Z,6.30
2023-01-10T17:30:40.345Z,7.50
2023-01-10T17:32:14.822Z,8.87
2023-01-10T17:33:48.980Z,8.23
2023-01-10T17:35:26.866Z,6.73
2023-01-10T17:36:59.925Z,9.50
2023-01-10T17:38:33.029Z,10.30
2023-01-10T17:40:07.203Z,5.83
2023-01-10T17:41:40.304Z,7.63
2023-01-10T17:43:14.090Z,4.83
2023-01-10T17:44:47.197Z,8.03
2023-01-10T17:46:22.222Z,6.17
2023-01-10T17:47:56.681Z,4.87
2023-01-10T17:49:29.765Z,5.80
2023-01-10T17:51:04.190Z,4.37
2023-01-10T17:52:37.335Z,6.87
2023-01-10T17:54:10.389Z,4.70
2023-01-10T17:55:47.227Z,4.57
2023-01-10T17:57:20.303Z,7.83
2023-01-10T17:58:53.791Z,5.23
2023-01-10T18:00:27.169Z,5.67
2023-01-10T18:02:00.380Z,6.53
2023-01-10T18:03:35.513Z,5.23
2023-01-10T18:05:09.461Z,5.60
2023-01-10T18:06:42.617Z,5.60
2023-01-10T18:08:15.661Z,6.23
2023-01-10T18:09:48.775Z,4.47
2023-01-10T18:11:22.782Z,3.97
2023-01-10T18:12:56.000Z,5.40
2023-01-10T18:14:36.866Z,5.77
2023-01-10T18:16:09.961Z,5.47
2023-01-10T18:17:44.237Z,5.60
2023-01-10T18:19:18.742Z,6.97
2023-01-10T18:20:53.109Z,8.10
2023-01-10T18:22:49.041Z,6.73
2023-01-10T18:24:22.212Z,5.33
2023-01-10T18:25:56.997Z,5.90
2023-01-10T18:27:30.128Z,4.10
2023-01-10T18:29:03.217Z,6.00
2023-01-10T18:30:36.306Z,6.10
2023-01-10T18:32:09.633Z,4.20
2023-01-10T18:33:42.890Z,5.10
2023-01-10T18:35:17.450Z,4.43
2023-01-10T18:36:50.557Z,3.33
2023-01-10T18:38:23.651Z,4.70
2023-01-10T18:39:56.778Z,4.77
2023-01-10T18:41:29.883Z,3.57
2023-01-10T18:43:03.005Z,3.23
2023-01-10T18:44:36.107Z,6.13
2023-01-10T18:46:12.530Z,2.80
2023-01-10T18:47:45.707Z,3.67
2023-01-10T18:49:18.790Z,3.83
2023-01-10T18:50:54.520Z,5.77
2023-01-10T18:52:27.693Z,3.60
2023-01-10T18:54:00.994Z,6.67
2023-01-10T18:55:34.180Z,6.20
2023-01-10T18:57:07.255Z,3.57
2023-01-10T18:58:42.427Z,4.70
2023-01-10T19:00:16.392Z,5.97
2023-01-10T19:01:49.603Z,3.67
2023-01-10T19:03:23.127Z,4.47
2023-01-10T19:04:56.183Z,5.30
2023-01-10T19:06:30.770Z,5.73
2023-01-10T19:08:03.820Z,7.13
2023-01-10T19:09:36.947Z,5.90
2023-01-10T19:11:14.324Z,4.70
2023-01-10T19:12:48.409Z,6.30
2023-01-10T19:14:21.528Z,5.53
2023-01-10T19:15:54.626Z,4.10
2023-01-10T19:17:27.809Z,7.20
2023-01-10T19:19:03.140Z,5.07
2023-01-10T19:20:36.248Z,4.33
2023-01-10T19:22:10.908Z,4.40
2023-01-10T19:23:44.556Z,4.43
2023-01-10T19:25:17.809Z,4.73
2023-01-10T19:26:51.002Z,5.50
2023-01-10T19:28:24.157Z,6.47
2023-01-10T19:29:57.274Z,6.30
2023-01-10T19:31:31.089Z,4.57
2023-01-10T19:33:04.239Z,3.93
2023-01-10T19:34:37.929Z,5.50
2023-01-10T19:36:12.062Z,5.07
2023-01-10T19:37:46.610Z,6.50
2023-01-10T19:39:19.681Z,7.13
2023-01-10T19:40:53.696Z,5.03
2023-01-10T19:42:26.944Z,4.03
2023-01-10T19:44:01.797Z,5.67
2023-01-10T19:45:35.180Z,5.03
2023-01-10T19:47:08.275Z,4.37
2023-01-10T19:48:41.461Z,6.60
2023-01-10T19:50:14.583Z,5.13
2023-01-10T19:51:51.163Z,3.87
2023-01-10T19:53:27.147Z,4.70
2023-01-10T19:55:00.221Z,5.43
2023-01-10T19:56:33.569Z,6.07
2023-01-10T19:58:06.728Z,7.33
2023-01-10T19:59:41.612Z,4.87
2023-01-10T20:01:16.591Z,5.17
2023-01-10T20:02:49.753Z,3.90
2023-01-10T20:04:22.851Z,4.80
2023-01-10T20:05:55.982Z,3.50
2023-01-10T20:07:29.321Z,3.70
2023-01-10T20:09:03.886Z,6.37
2023-01-10T20:10:36.946Z,4.40
2023-01-10T20:12:10.028Z,5.07
2023-01-10T20:13:45.244Z,4.73
2023-01-10T20:15:18.652Z,8.40
2023-01-10T20:16:53.172Z,6.67
2023-01-10T20:18:26.739Z,3.97
2023-01-10T20:20:00.547Z,5.63
2023-01-10T20:21:34.116Z,4.40
2023-01-10T20:23:09.196Z,5.03
2023-01-10T20:24:43.700Z,5.10
2023-01-10T20:26:19.282Z,5.63
2023-01-10T20:27:52.395Z,3.83
2023-01-10T20:29:25.511Z,6.07
2023-01-10T20:30:58.615Z,4.93
2023-01-10T20:32:31.770Z,3.37
2023-01-10T20:34:04.860Z,2.83
2023-01-10T20:35:40.212Z,5.03
2023-01-10T20:37:14.315Z,3.63
2023-01-10T20:38:47.816Z,4.03
2023-01-10T20:40:24.951Z,3.70
2023-01-10T20:41:59.031Z,4.57
2023-01-10T20:43:32.155Z,3.13
2023-01-10T20:45:05.601Z,3.73
2023-01-10T20:46:39.159Z,3.70
2023-01-10T20:48:12.269Z,4.00
2023-01-10T20:49:45.400Z,4.57
2023-01-10T20:51:20.723Z,4.60
2023-01-10T20:52:53.933Z,2.97
2023-01-10T20:54:27.035Z,2.63
2023-01-10T20:56:04.793Z,3.13
2023-01-10T20:57:37.975Z,5.33
2023-01-10T20:59:11.042Z,4.53
2023-01-10T21:00:44.664Z,4.53
2023-01-10T21:02:17.870Z,4.60
2023-01-10T21:03:51.135Z,5.67
2023-01-10T21:05:24.286Z,3.50
2023-01-10T21:06:57.514Z,3.73
2023-01-10T21:08:30.963Z,3.13
2023-01-10T21:10:04.157Z,4.03
2023-01-10T21:11:56.325Z,5.67
2023-01-10T21:13:31.848Z,6.73
2023-01-10T21:15:05.498Z,5.20
2023-01-10T21:16:38.620Z,5.30
2023-01-10T21:18:12.273Z,4.90
2023-01-10T21:19:45.496Z,4.57
2023-01-10T21:21:22.466Z,7.15
2023-01-10T21:22:56.651Z,5.93
2023-01-10T21:24:30.984Z,6.93
2023-01-10T21:26:06.593Z,5.43
2023-01-10T21:27:41.031Z,5.45
2023-01-10T21:29:14.133Z,8.30
2023-01-10T21:30:47.892Z,7.17
2023-01-10T21:32:20.963Z,4.82
2023-01-10T21:33:55.264Z,5.43
2023-01-10T21:35:28.375Z,4.82
2023-01-10T21:37:01.525Z,5.75
2023-01-10T21:38:36.241Z,4.82
2023-01-10T21:40:10.519Z,5.03
2023-01-10T21:42:01.353Z,5.57
2023-01-10T21:43:36.198Z,5.45
2023-01-10T21:45:09.918Z,5.33
2023-01-10T21:46:44.624Z,6.43
2023-01-10T21:48:17.790Z,6.23
2023-01-10T21:49:51.270Z,8.27
2023-01-10T21:51:24.395Z,6.45
2023-01-10T21:52:57.486Z,5.95
2023-01-10T21:54:31.103Z,4.53
2023-01-10T21:56:04.193Z,4.13
2023-01-10T21:57:39.505Z,4.83
2023-01-10T21:59:14.185Z,5.18
2023-01-10T22:00:47.413Z,3.80
2023-01-10T22:02:22.380Z,8.43
2023-01-10T22:03:55.601Z,3.80
2023-01-10T22:05:28.991Z,7.00
2023-01-10T22:07:02.070Z,6.33
2023-01-10T22:08:35.183Z,5.85
2023-01-10T22:10:09.943Z,7.15
2023-01-10T22:11:43.167Z,7.50
2023-01-10T22:13:16.285Z,4.72
2023-01-10T22:14:50.984Z,7.55
2023-01-10T22:16:24.176Z,7.68
2023-01-10T22:17:58.446Z,5.97
2023-01-10T22:19:31.601Z,8.02
2023-01-10T22:21:04.865Z,7.70
2023-01-10T22:22:38.845Z,7.00
2023-01-10T22:24:11.970Z,13.35
2023-01-10T22:25:45.064Z,17.42
2023-01-10T22:27:19.876Z,10.98
2023-01-10T22:28:53.055Z,13.15
2023-01-10T22:30:27.453Z,12.45
2023-01-10T22:32:00.652Z,14.85
2023-01-10T22:33:35.536Z,19.65
2023-01-10T22:35:13.583Z,14.50
2023-01-10T22:36:46.898Z,14.65
2023-01-10T22:38:19.978Z,12.60
2023-01-10T22:39:53.145Z,14.75
2023-01-10T22:41:27.391Z,18.05
2023-01-10T22:43:00.592Z,15.03
2023-01-10T22:44:33.629Z,14.40
2023-01-10T22:46:07.597Z,16.83
2023-01-10T22:47:40.681Z,18.70
2023-01-10T22:49:14.241Z,14.40
2023-01-10T22:50:49.787Z,20.83
2023-01-10T22:52:22.938Z,19.27
2023-01-10T22:53:59.097Z,15.97
2023-01-10T22:55:34.707Z,19.70
2023-01-10T22:57:07.783Z,18.67
2023-01-10T22:58:42.252Z,18.55
2023-01-10T23:00:15.948Z,18.73
2023-01-10T23:01:50.410Z,16.92
2023-01-10T23:03:24.242Z,21.38
2023-01-10T23:04:57.309Z,19.40
2023-01-10T23:06:30.428Z,17.48
2023-01-10T23:08:03.646Z,18.92
2023-01-10T23:09:36.708Z,19.58
2023-01-10T23:11:11.543Z,20.00
2023-01-10T23:12:44.584Z,21.00
2023-01-10T23:14:17.647Z,20.92
2023-01-10T23:15:57.198Z,17.75
2023-01-10T23:17:30.671Z,21.10
2023-01-10T23:19:03.786Z,24.55
2023-01-10T23:20:36.952Z,22.90
2023-01-10T23:22:10.010Z,22.60
2023-01-10T23:23:42.221Z,17.88
2023-01-10T23:25:15.277Z,19.02
2023-01-10T23:26:49.809Z,22.42
2023-01-10T23:28:21.882Z,20.92
2023-01-10T23:29:54.942Z,19.67
2023-01-10T23:31:29.698Z,19.90
2023-01-10T23:33:04.618Z,21.00
2023-01-10T23:34:37.877Z,24.92
2023-01-10T23:36:11.770Z,26.05
2023-01-10T23:37:44.835Z,25.92
2023-01-10T23:39:19.060Z,24.88
2023-01-10T23:40:52.168Z,22.88
2023-01-10T23:42:25.328Z,22.45
2023-01-10T23:43:58.383Z,27.02
2023-01-10T23:45:31.637Z,24.42
2023-01-10T23:47:04.886Z,28.58
2023-01-10T23:48:40.266Z,26.77
2023-01-10T23:50:12.380Z,27.05
2023-01-10T23:51:45.744Z,24.88
2023-01-10T23:53:19.430Z,24.23
2023-01-10T23:54:53.399Z,25.52
2023-01-10T23:56:26.469Z,26.00
2023-01-10T23:57:58.792Z,26.80
2023-01-10T23:59:31.862Z,29.58
